Time;durP1;ratioP1;P1;durP2;ratioP2;P2;SDS_P1;SDS_P2;PMS_P1;PMS_P2;Temp;Humidity;BMP_temperature;BMP_pressure;BME280_temperature;BME280_humidity;BME280_pressure;Samples;Min_cycle;Max_cycle;Signal;HPM_P1;HPM_P2
2023/08/30 00:01:20;;;;;;;4.70;2.90;;;;;;;14.11;95.26;100165.50;5021887;28;20656;-74
2023/08/30 00:03:47;;;;;;;3.20;2.90;;;;;;;14.10;95.05;100154.13;5024271;28;20208;-73
2023/08/30 00:06:13;;;;;;;3.37;3.07;;;;;;;14.12;94.70;100161.75;5021919;28;20593;-73
2023/08/30 00:08:39;;;;;;;7.87;3.23;;;;;;;14.12;95.31;100167.81;5021692;28;20199;-73
2023/08/30 00:11:06;;;;;;;4.13;3.30;;;;;;;14.12;95.27;100175.78;5023342;28;20605;-74
2023/08/30 00:13:33;;;;;;;4.07;3.67;;;;;;;14.14;94.81;100175.41;5024651;28;20219;-74
2023/08/30 00:16:02;;;;;;;3.67;3.33;;;;;;;14.14;95.24;100178.84;5023098;28;20249;-74
2023/08/30 00:18:28;;;;;;;4.00;3.60;;;;;;;14.15;95.39;100183.03;5024576;28;20207;-74
2023/08/30 00:20:56;;;;;;;4.37;3.87;;;;;;;14.16;94.95;100189.09;5027321;28;20296;-74
2023/08/30 00:23:23;;;;;;;5.73;3.83;;;;;;;14.19;95.56;100186.50;5023802;28;20344;-74
2023/08/30 00:25:49;;;;;;;4.57;4.10;;;;;;;14.20;95.80;100198.69;5023983;28;20259;-74
2023/08/30 00:28:15;;;;;;;5.43;4.33;;;;;;;14.22;95.37;100206.28;5024642;28;21339;-74
2023/08/30 00:30:43;;;;;;;4.93;4.43;;;;;;;14.24;95.25;100204.03;5025881;28;20210;-74
2023/08/30 00:33:10;;;;;;;7.97;4.53;;;;;;;14.25;95.62;100202.91;5003782;28;20208;-74
2023/08/30 00:35:36;;;;;;;4.97;4.47;;;;;;;14.26;95.57;100205.22;5020833;28;20239;-74
2023/08/30 00:38:03;;;;;;;7.30;5.13;;;;;;;14.29;95.61;100199.19;5024703;28;21899;-73
2023/08/30 00:40:29;;;;;;;4.47;4.07;;;;;;;14.30;95.76;100211.34;5023837;28;20205;-74
2023/08/30 00:42:57;;;;;;;4.90;4.37;;;;;;;14.32;95.59;100203.00;5006128;28;20813;-74
2023/08/30 00:45:24;;;;;;;6.23;4.93;;;;;;;14.33;95.76;100204.56;5023453;28;20258;-74
2023/08/30 00:47:52;;;;;;;6.53;5.00;;;;;;;14.33;95.36;100194.69;5003083;28;20218;-73
2023/08/30 00:50:19;;;;;;;7.40;5.17;;;;;;;14.35;95.14;100187.13;5021780;28;20209;-74
2023/08/30 00:52:45;;;;;;;7.47;5.57;;;;;;;14.35;95.20;100191.69;5024355;28;20644;-74
2023/08/30 00:55:12;;;;;;;6.40;5.70;;;;;;;14.34;95.58;100187.50;5007542;28;20282;-74
2023/08/30 00:57:39;;;;;;;6.43;5.50;;;;;;;14.34;95.12;100208.75;5018979;28;20708;-74
2023/08/30 01:00:07;;;;;;;8.23;5.27;;;;;;;14.35;95.47;100211.03;5020071;28;20831;-74
2023/08/30 01:02:34;;;;;;;5.03;4.53;;;;;;;14.36;95.31;100214.44;5018499;28;20203;-73
2023/08/30 01:05:03;;;;;;;7.60;4.90;;;;;;;14.37;94.93;100211.44;5003454;28;20228;-74
2023/08/30 01:07:30;;;;;;;6.47;5.73;;;;;;;14.37;95.24;100195.50;5005844;28;20214;-74
2023/08/30 01:09:57;;;;;;;7.97;5.10;;;;;;;14.38;95.23;100181.09;5004997;28;20210;-74
2023/08/30 01:12:29;;;;;;;5.83;5.23;;;;;;;14.39;95.22;100179.22;5008839;28;21015;-74
2023/08/30 01:15:01;;;;;;;5.87;4.63;;;;;;;14.37;95.61;100171.59;5001895;28;20232;-74
2023/08/30 01:17:30;;;;;;;4.80;4.30;;;;;;;14.36;95.49;100175.38;5003763;28;20200;-74
2023/08/30 01:20:01;;;;;;;5.10;4.60;;;;;;;14.36;95.10;100178.03;5006508;28;20683;-74
2023/08/30 01:22:44;;;;;;;5.90;4.47;;;;;;;14.36;94.85;100166.63;5021866;28;20672;-74
2023/08/30 01:25:21;;;;;;;6.70;4.87;;;;;;;14.34;95.24;100169.66;5003264;28;20228;-74
2023/08/30 01:27:51;;;;;;;4.47;4.07;;;;;;;14.34;95.09;100174.97;5020038;28;20220;-74
2023/08/30 01:30:19;;;;;;;5.50;4.23;;;;;;;14.32;95.15;100163.16;5019678;28;20257;-74
2023/08/30 01:32:47;;;;;;;5.87;4.40;;;;;;;14.31;94.97;100172.25;5021343;28;20248;-74
2023/08/30 01:35:17;;;;;;;4.83;4.43;;;;;;;14.29;95.18;100174.53;5021781;28;20243;-74
2023/08/30 01:37:44;;;;;;;5.20;4.10;;;;;;;14.30;95.04;100174.16;5020635;28;20210;-74
2023/08/30 01:40:12;;;;;;;4.60;4.13;;;;;;;14.29;94.78;100177.94;5002972;28;20579;-74
2023/08/30 01:42:40;;;;;;;5.13;4.53;;;;;;;14.27;94.98;100174.88;5021077;28;20203;-74
2023/08/30 01:45:13;;;;;;;8.33;4.23;;;;;;;14.29;95.37;100177.94;5001486;28;20244;-74
2023/08/30 01:47:43;;;;;;;6.80;4.90;;;;;;;14.30;95.30;100168.06;5023344;28;20211;-74
2023/08/30 01:50:10;;;;;;;4.27;3.80;;;;;;;14.29;94.91;100163.91;5001893;28;20204;-74
2023/08/30 01:52:37;;;;;;;4.37;3.87;;;;;;;14.29;95.12;100177.94;5008175;28;20254;-74
2023/08/30 01:55:05;;;;;;;4.23;3.80;;;;;;;14.30;94.84;100184.78;5021717;28;20242;-74
2023/08/30 01:57:32;;;;;;;6.43;3.57;;;;;;;14.31;94.97;100166.94;5004234;28;20370;-74
2023/08/30 01:59:58;;;;;;;3.50;3.20;;;;;;;14.31;95.01;100172.25;5004287;28;20227;-74
2023/08/30 02:02:29;;;;;;;4.33;3.30;;;;;;;14.29;95.21;100167.31;5005913;28;20227;-74
2023/08/30 02:04:55;;;;;;;4.10;3.10;;;;;;;14.27;94.91;100163.47;5021396;28;20223;-74
2023/08/30 02:07:29;;;;;;;4.13;3.33;;;;;;;14.27;94.93;100161.59;5002516;28;20654;-74
2023/08/30 02:09:59;;;;;;;3.37;2.97;;;;;;;14.26;95.14;100161.94;5017767;28;20345;-74
2023/08/30 02:12:32;;;;;;;6.73;3.87;;;;;;;14.25;95.29;100163.06;5021903;28;20215;-74
2023/08/30 02:14:59;;;;;;;3.17;2.87;;;;;;;14.23;95.02;100160.78;5008567;28;20309;-74
2023/08/30 02:17:27;;;;;;;4.67;3.17;;;;;;;14.24;94.95;100157.00;5006769;28;20216;-74
2023/08/30 02:19:54;;;;;;;3.50;3.20;;;;;;;14.25;94.90;100149.81;5003077;28;20216;-74
2023/08/30 02:22:20;;;;;;;3.93;3.60;;;;;;;14.24;95.17;100149.03;5022374;28;20209;-74
2023/08/30 02:24:47;;;;;;;6.43;3.60;;;;;;;14.25;95.53;100157.75;5022591;28;20228;-74
2023/08/30 02:27:13;;;;;;;4.87;4.03;;;;;;;14.25;95.31;100160.41;5019897;28;20223;-74
2023/08/30 02:29:40;;;;;;;4.47;3.83;;;;;;;14.26;95.24;100152.09;5019479;28;21748;-74
2023/08/30 02:32:07;;;;;;;4.83;4.37;;;;;;;14.27;95.15;100155.50;5017236;28;20896;-74
2023/08/30 02:34:35;;;;;;;5.13;4.40;;;;;;;14.26;95.32;100154.75;5018597;28;20240;-74
2023/08/30 02:37:02;;;;;;;6.20;4.27;;;;;;;14.27;95.11;100156.28;5012199;28;20208;-74
2023/08/30 02:39:28;;;;;;;6.20;4.13;;;;;;;14.28;95.48;100154.41;5021256;28;20684;-74
2023/08/30 02:41:54;;;;;;;5.20;4.00;;;;;;;14.29;95.44;100153.28;5007807;28;20493;-74
2023/08/30 02:44:21;;;;;;;3.97;3.57;;;;;;;14.30;95.53;100155.56;5002719;28;20717;-74
2023/08/30 02:46:47;;;;;;;4.80;4.27;;;;;;;14.30;96.03;100165.41;5003687;28;20733;-74
2023/08/30 02:49:13;;;;;;;4.13;3.70;;;;;;;14.30;95.85;100170.72;5020168;28;20296;-74
2023/08/30 02:51:41;;;;;;;4.33;3.93;;;;;;;14.31;95.95;100173.03;5005833;28;20417;-74
2023/08/30 02:54:08;;;;;;;4.50;4.00;;;;;;;14.33;95.75;100175.34;5000632;28;20616;-74
2023/08/30 02:56:34;;;;;;;5.20;4.20;;;;;;;14.32;95.19;100174.56;5003504;28;20209;-74
2023/08/30 02:59:01;;;;;;;6.00;4.10;;;;;;;14.32;95.51;100171.91;5019352;28;20217;-74
2023/08/30 03:01:27;;;;;;;5.53;4.13;;;;;;;14.31;95.62;100172.25;5002589;28;20254;-74
2023/08/30 03:03:54;;;;;;;6.00;4.20;;;;;;;14.31;95.24;100166.94;5020619;28;20208;-74
2023/08/30 03:06:20;;;;;;;4.77;4.00;;;;;;;14.30;95.31;100173.38;5003850;28;20363;-74
2023/08/30 03:08:48;;;;;;;5.07;4.00;;;;;;;14.27;95.05;100172.22;5001067;28;20209;-74
2023/08/30 03:11:15;;;;;;;7.30;4.07;;;;;;;14.29;95.13;100167.31;5016073;28;20702;-74
2023/08/30 03:13:50;;;;;;;5.60;4.33;;;;;;;14.28;95.61;100179.06;5000998;28;20203;-74
2023/08/30 03:16:17;;;;;;;4.93;4.40;;;;;;;14.29;95.00;100185.16;5019659;28;20219;-74
2023/08/30 03:18:44;;;;;;;6.07;4.73;;;;;;;14.28;95.37;100181.72;5000518;28;20215;-74
2023/08/30 03:21:11;;;;;;;5.27;4.77;;;;;;;14.29;95.60;100185.91;5011503;28;21146;-74
2023/08/30 03:23:39;;;;;;;6.80;5.17;;;;;;;14.29;95.64;100183.25;5001564;28;21924;-74
2023/08/30 03:26:11;;;;;;;6.50;5.80;;;;;;;14.30;95.31;100181.34;5000039;28;21174;-74
2023/08/30 03:28:38;;;;;;;7.60;6.23;;;;;;;14.27;95.44;100182.84;5001548;28;20275;-74
2023/08/30 03:31:12;;;;;;;6.80;6.10;;;;;;;14.29;95.43;100195.78;4998143;28;20214;-74
2023/08/30 03:33:41;;;;;;;10.50;6.47;;;;;;;14.29;95.42;100187.81;5001014;28;20203;-73
2023/08/30 03:36:08;;;;;;;8.00;7.20;;;;;;;14.28;95.43;100186.28;5000650;28;20321;-74
2023/08/30 03:38:34;;;;;;;9.30;7.07;;;;;;;14.28;95.32;100186.28;5003290;28;20205;-74
2023/08/30 03:41:01;;;;;;;13.87;7.67;;;;;;;14.27;95.33;100187.38;5002263;28;20225;-74
2023/08/30 03:43:29;;;;;;;9.30;8.00;;;;;;;14.29;95.03;100191.22;5018394;28;20199;-74
2023/08/30 03:45:55;;;;;;;10.67;7.60;;;;;;;14.30;95.39;100202.59;5020616;28;20225;-75
2023/08/30 03:48:21;;;;;;;9.63;7.53;;;;;;;14.29;95.38;100199.19;5020949;28;20213;-75
2023/08/30 03:50:48;;;;;;;11.47;9.17;;;;;;;14.29;95.55;100201.84;5022991;28;21292;-75
2023/08/30 03:53:14;;;;;;;10.73;8.80;;;;;;;14.27;95.55;100204.09;5019355;23;20187;-73
2023/08/30 03:55:41;;;;;;;11.37;8.53;;;;;;;14.28;95.23;100205.63;4999221;28;20211;-73
2023/08/30 03:58:07;;;;;;;9.77;8.27;;;;;;;14.29;95.17;100198.44;5001269;28;20213;-73
2023/08/30 04:00:38;;;;;;;11.10;8.93;;;;;;;14.27;95.59;100200.66;5003690;28;20202;-73
2023/08/30 04:03:05;;;;;;;10.03;8.43;;;;;;;14.26;95.75;100201.78;5018048;28;20209;-74
2023/08/30 04:05:33;;;;;;;11.83;8.90;;;;;;;14.25;95.62;100208.22;4997946;28;20335;-73
2023/08/30 04:07:59;;;;;;;11.27;8.43;;;;;;;14.23;95.49;100210.50;4995155;28;20632;-73
2023/08/30 04:10:26;;;;;;;9.70;8.53;;;;;;;14.21;95.70;100210.06;5018571;28;20209;-73
2023/08/30 04:12:52;;;;;;;10.77;8.37;;;;;;;14.22;95.65;100212.38;5002568;28;20210;-73
2023/08/30 04:15:18;;;;;;;10.80;8.13;;;;;;;14.24;95.48;100217.31;4997994;28;20215;-74
2023/08/30 04:17:46;;;;;;;10.70;8.47;;;;;;;14.24;95.46;100217.31;5016318;28;20208;-73
2023/08/30 04:20:13;;;;;;;9.67;7.47;;;;;;;14.21;95.28;100212.72;5021242;28;20607;-74
2023/08/30 04:22:39;;;;;;;9.17;7.80;;;;;;;14.21;95.50;100202.88;5020037;28;20217;-73
2023/08/30 04:25:09;;;;;;;9.87;7.60;;;;;;;14.20;95.29;100201.34;5020596;28;20220;-73
2023/08/30 04:27:35;;;;;;;9.70;7.87;;;;;;;14.21;95.68;100200.22;5015332;28;20216;-73
2023/08/30 04:30:02;;;;;;;10.80;8.13;;;;;;;14.22;95.45;100201.75;5001291;28;20219;-73
2023/08/30 04:32:28;;;;;;;11.57;7.77;;;;;;;14.22;95.29;100206.28;4998048;28;20207;-73
2023/08/30 04:34:56;;;;;;;11.90;7.30;;;;;;;14.23;95.52;100219.19;5004740;28;20402;-73
2023/08/30 04:37:22;;;;;;;9.53;8.03;;;;;;;14.23;95.36;100216.53;5005145;28;20221;-73
2023/08/30 04:39:49;;;;;;;8.27;7.47;;;;;;;14.25;95.54;100203.69;5001905;28;20214;-73
2023/08/30 04:42:15;;;;;;;9.20;7.27;;;;;;;14.24;95.34;100204.78;5003566;28;20282;-73
2023/08/30 04:44:42;;;;;;;7.90;7.10;;;;;;;14.26;95.71;100204.44;4996353;28;20228;-73
2023/08/30 04:47:08;;;;;;;8.63;7.13;;;;;;;14.27;95.92;100212.06;4995011;28;20791;-73
2023/08/30 04:49:35;;;;;;;11.37;7.30;;;;;;;14.30;95.86;100205.25;5019148;28;20206;-73
2023/08/30 04:52:05;;;;;;;9.60;6.97;;;;;;;14.30;95.42;100200.72;5017502;28;20409;-73
2023/08/30 04:54:32;;;;;;;7.57;6.80;;;;;;;14.30;95.59;100195.41;5001242;28;20225;-73
2023/08/30 04:56:59;;;;;;;8.47;6.90;;;;;;;14.30;95.50;100200.72;5002350;28;20206;-74
2023/08/30 04:59:26;;;;;;;10.00;6.77;;;;;;;14.31;95.70;100202.25;5023466;28;20203;-73
2023/08/30 05:01:52;;;;;;;8.53;7.63;;;;;;;14.33;95.60;100204.56;5001478;28;20206;-73
2023/08/30 05:04:20;;;;;;;9.20;7.80;;;;;;;14.34;95.48;100206.09;4997232;28;20505;-73
2023/08/30 05:06:47;;;;;;;8.80;7.00;;;;;;;14.35;95.67;100218.22;4999809;28;20223;-73
2023/08/30 05:09:15;;;;;;;8.43;7.47;;;;;;;14.35;95.39;100216.34;5020879;28;20319;-73
2023/08/30 05:11:41;;;;;;;10.30;7.07;;;;;;;14.36;95.41;100223.19;5022787;28;20878;-74
2023/08/30 05:14:12;;;;;;;7.70;6.97;;;;;;;14.38;95.52;100228.16;5003431;28;20227;-73
2023/08/30 05:16:38;;;;;;;8.73;6.87;;;;;;;14.40;95.30;100232.00;5019803;28;21080;-74
2023/08/30 05:19:05;;;;;;;8.17;6.80;;;;;;;14.40;95.54;100224.00;4998120;28;21324;-73
2023/08/30 05:21:31;;;;;;;7.83;6.63;;;;;;;14.41;95.23;100222.88;5014838;28;20203;-74
2023/08/30 05:23:58;;;;;;;7.63;6.33;;;;;;;14.42;95.02;100221.75;4994269;28;20644;-74
2023/08/30 05:26:26;;;;;;;12.00;7.37;;;;;;;14.42;94.97;100220.97;5000696;28;20220;-74
2023/08/30 05:28:52;;;;;;;7.67;6.50;;;;;;;14.45;94.90;100223.72;5000793;28;20236;-74
2023/08/30 05:31:19;;;;;;;7.93;6.57;;;;;;;14.46;95.27;100216.47;4994572;28;20205;-74
2023/08/30 05:33:59;;;;;;;7.70;6.77;;;;;;;14.47;95.49;100213.47;5001800;28;20317;-74
2023/08/30 05:36:44;;;;;;;7.80;7.00;;;;;;;14.48;94.76;100212.34;5021970;28;20268;-73
2023/08/30 05:39:24;;;;;;;7.03;6.33;;;;;;;14.50;95.43;100215.41;5001482;28;21208;-74
2023/08/30 05:41:57;;;;;;;8.10;6.47;;;;;;;14.53;95.22;100220.00;5017994;28;20573;-74
2023/08/30 05:44:23;;;;;;;7.33;6.47;;;;;;;14.54;94.96;100213.56;5003825;28;20228;-73
2023/08/30 05:46:49;;;;;;;7.07;6.37;;;;;;;14.57;95.25;100214.72;4998365;28;20219;-74
2023/08/30 05:49:16;;;;;;;7.57;6.70;;;;;;;14.59;94.78;100207.94;5002678;28;20677;-74
2023/08/30 05:51:42;;;;;;;8.03;6.90;;;;;;;14.56;94.70;100215.88;5022468;28;20212;-73
2023/08/30 05:54:09;;;;;;;7.47;6.73;;;;;;;14.58;94.57;100209.06;5022667;28;20234;-74
2023/08/30 05:56:35;;;;;;;9.97;7.10;;;;;;;14.61;95.21;100211.00;5003565;28;20207;-74
2023/08/30 05:59:03;;;;;;;11.03;7.47;;;;;;;14.61;94.72;100211.00;5002121;28;20217;-73
2023/08/30 06:01:29;;;;;;;7.30;6.60;;;;;;;14.63;94.47;100214.06;5021600;28;21241;-74
2023/08/30 06:03:56;;;;;;;11.17;7.07;;;;;;;14.64;94.19;100212.94;5018179;28;20240;-74
2023/08/30 06:06:22;;;;;;;7.97;7.17;;;;;;;14.67;94.37;100214.09;5018989;28;20224;-74
2023/08/30 06:08:49;;;;;;;7.53;6.57;;;;;;;14.67;94.10;100209.56;4994387;28;20211;-74
2023/08/30 06:11:15;;;;;;;7.83;6.77;;;;;;;14.70;94.55;100208.81;5020624;28;20208;-74
2023/08/30 06:13:42;;;;;;;7.53;6.83;;;;;;;14.74;94.29;100200.91;5023656;28;20276;-73
2023/08/30 06:16:10;;;;;;;11.00;7.10;;;;;;;14.78;94.39;100199.06;5022626;28;20207;-74
2023/08/30 06:18:37;;;;;;;8.17;7.37;;;;;;;14.80;94.21;100204.78;5022024;28;20790;-74
2023/08/30 06:21:04;;;;;;;8.73;7.20;;;;;;;14.83;94.17;100204.81;4997863;28;20207;-74
2023/08/30 06:23:30;;;;;;;7.83;6.90;;;;;;;14.86;93.83;100217.38;5021736;28;20230;-73
2023/08/30 06:25:57;;;;;;;7.30;6.47;;;;;;;14.88;93.92;100206.38;5021405;28;20890;-73
2023/08/30 06:28:24;;;;;;;7.33;6.33;;;;;;;14.91;93.42;100211.75;5021637;28;20218;-73
2023/08/30 06:30:51;;;;;;;7.50;6.70;;;;;;;14.93;93.13;100203.41;5022327;28;20203;-74
2023/08/30 06:33:19;;;;;;;7.40;5.83;;;;;;;15.00;93.13;100206.16;5021928;28;20708;-74
2023/08/30 06:35:48;;;;;;;8.17;7.17;;;;;;;15.10;94.07;100210.81;5021268;28;20188;-74
2023/08/30 06:38:15;;;;;;;8.60;7.03;;;;;;;15.19;94.04;100208.63;5020314;28;20201;-74
2023/08/30 06:40:45;;;;;;;8.23;6.93;;;;;;;15.29;94.02;100211.41;5002597;28;20412;-74
2023/08/30 06:43:12;;;;;;;6.80;6.10;;;;;;;15.39;93.56;100208.13;5019514;28;20241;-74
2023/08/30 06:45:39;;;;;;;6.57;5.60;;;;;;;15.50;92.90;100203.66;5020250;28;20222;-74
2023/08/30 06:48:06;;;;;;;6.13;5.53;;;;;;;15.61;93.24;100207.16;4994820;28;20222;-74
2023/08/30 06:50:34;;;;;;;5.77;5.17;;;;;;;15.69;91.24;100208.00;5019589;28;20202;-74
2023/08/30 06:53:01;;;;;;;5.00;4.50;;;;;;;15.81;91.89;100213.03;5017960;28;20564;-74
2023/08/30 06:55:27;;;;;;;5.13;4.40;;;;;;;15.90;91.25;100227.59;5017296;28;20199;-74
2023/08/30 06:57:53;;;;;;;4.80;3.30;;;;;;;15.94;89.72;100222.28;5019297;28;20199;-74
2023/08/30 07:00:20;;;;;;;3.47;3.17;;;;;;;15.99;88.83;100222.69;5018999;28;20204;-74
2023/08/30 07:02:46;;;;;;;3.33;2.67;;;;;;;16.04;89.10;100224.25;5019498;28;20218;-74
2023/08/30 07:05:13;;;;;;;7.20;3.93;;;;;;;16.08;89.30;100233.00;5018492;28;20231;-74
2023/08/30 07:07:41;;;;;;;4.53;3.17;;;;;;;16.11;88.93;100234.94;5016834;28;20234;-74
2023/08/30 07:10:08;;;;;;;3.10;2.80;;;;;;;16.07;87.21;100239.47;4996026;28;22298;-74
2023/08/30 07:12:34;;;;;;;3.17;2.87;;;;;;;16.05;87.66;100241.75;5019782;28;20645;-74
2023/08/30 07:15:00;;;;;;;4.40;3.30;;;;;;;16.04;87.87;100233.00;5001158;28;20234;-74
2023/08/30 07:17:27;;;;;;;3.53;2.80;;;;;;;16.04;88.24;100233.00;5019300;28;20203;-74
2023/08/30 07:19:53;;;;;;;5.03;3.43;;;;;;;16.02;87.74;100243.25;5020010;28;21300;-74
2023/08/30 07:22:19;;;;;;;4.83;3.33;;;;;;;16.03;88.33;100246.69;5018588;28;20210;-74
2023/08/30 07:24:47;;;;;;;3.47;2.97;;;;;;;16.04;88.20;100248.22;5015169;28;20266;-74
2023/08/30 07:27:14;;;;;;;7.60;4.03;;;;;;;16.05;87.97;100249.75;5018537;28;20230;-74
2023/08/30 07:29:40;;;;;;;3.40;3.10;;;;;;;16.08;88.51;100241.78;5021508;28;20207;-74
2023/08/30 07:32:07;;;;;;;3.77;3.40;;;;;;;16.10;88.14;100252.06;5022062;28;20213;-74
2023/08/30 07:34:33;;;;;;;3.60;3.30;;;;;;;16.12;87.92;100247.13;5022209;28;20241;-74
2023/08/30 07:37:00;;;;;;;4.17;3.23;;;;;;;16.14;87.38;100247.53;5019494;28;20225;-74
2023/08/30 07:39:26;;;;;;;3.73;3.40;;;;;;;16.16;87.54;100248.69;5020380;28;20678;-74
2023/08/30 07:41:54;;;;;;;3.20;2.90;;;;;;;16.19;87.50;100241.88;5000757;28;20211;-74
2023/08/30 07:44:20;;;;;;;3.50;3.20;;;;;;;16.23;87.14;100246.06;5021914;28;20234;-74
2023/08/30 07:46:47;;;;;;;3.63;3.00;;;;;;;16.29;86.82;100243.81;5020389;28;20262;-75
2023/08/30 07:49:14;;;;;;;4.37;3.10;;;;;;;16.37;87.89;100240.06;5020204;28;20214;-74
2023/08/30 07:51:40;;;;;;;3.40;2.57;;;;;;;16.43;86.78;100242.06;5015416;28;20207;-74
2023/08/30 07:54:07;;;;;;;3.17;2.87;;;;;;;16.52;87.05;100255.81;5020688;28;20235;-74
2023/08/30 07:56:33;;;;;;;2.80;2.60;;;;;;;16.59;86.74;100247.84;5018859;28;20700;-74
2023/08/30 07:59:01;;;;;;;5.43;3.00;;;;;;;16.67;86.40;100249.41;5019145;28;20425;-74
2023/08/30 08:01:27;;;;;;;2.20;2.00;;;;;;;16.72;84.60;100242.97;5019787;28;20203;-74
2023/08/30 08:03:55;;;;;;;3.13;2.30;;;;;;;16.80;85.27;100241.84;5018012;28;20291;-74
2023/08/30 08:06:22;;;;;;;2.73;2.43;;;;;;;16.88;85.85;100244.16;5019478;28;20219;-75
2023/08/30 08:08:48;;;;;;;3.57;2.60;;;;;;;16.95;84.37;100243.44;5022150;28;20210;-74
2023/08/30 08:11:15;;;;;;;3.90;2.30;;;;;;;17.00;83.18;100235.06;5017405;28;20215;-75
2023/08/30 08:13:42;;;;;;;3.87;2.03;;;;;;;17.08;84.66;100233.97;5021669;28;20281;-74
2023/08/30 08:16:10;;;;;;;2.10;1.90;;;;;;;17.18;83.99;100233.97;5021411;28;20309;-74
2023/08/30 08:18:36;;;;;;;2.40;2.20;;;;;;;17.23;83.00;100228.28;5020230;28;20214;-75
2023/08/30 08:21:04;;;;;;;2.23;2.03;;;;;;;17.33;84.12;100229.47;5020857;28;20475;-74
2023/08/30 08:23:30;;;;;;;2.27;1.97;;;;;;;17.39;82.09;100226.03;5015154;28;20227;-74
2023/08/30 08:26:00;;;;;;;2.53;1.90;;;;;;;17.44;81.00;100225.69;5019687;28;20212;-75
2023/08/30 08:28:26;;;;;;;2.00;1.80;;;;;;;17.50;81.74;100228.75;5020289;28;20195;-75
2023/08/30 08:30:53;;;;;;;2.40;2.20;;;;;;;17.56;80.20;100227.22;5016506;28;20218;-75
2023/08/30 08:33:22;;;;;;;4.57;2.33;;;;;;;17.59;78.72;100229.91;5022573;28;20857;-75
2023/08/30 08:35:49;;;;;;;4.17;1.90;;;;;;;17.61;81.05;100224.19;5020801;28;20237;-74
2023/08/30 08:38:15;;;;;;;1.90;1.80;;;;;;;17.60;78.41;100228.00;5019517;28;20206;-75
2023/08/30 08:40:42;;;;;;;2.83;1.90;;;;;;;17.66;80.41;100221.13;5020294;28;20576;-75
2023/08/30 08:43:11;;;;;;;2.87;2.20;;;;;;;17.71;78.70;100221.53;5020155;28;20570;-75
2023/08/30 08:45:37;;;;;;;3.37;1.93;;;;;;;17.75;78.64;100232.94;5019320;28;20199;-74
2023/08/30 08:48:04;;;;;;;3.27;2.17;;;;;;;17.78;77.61;100226.88;5021890;28;20546;-75
2023/08/30 08:50:33;;;;;;;2.00;1.90;;;;;;;17.82;77.31;100214.28;5001499;28;20231;-74
2023/08/30 08:53:00;;;;;;;3.03;1.87;;;;;;;17.91;79.81;100217.31;5020574;28;21176;-75
2023/08/30 08:55:27;;;;;;;2.43;1.87;;;;;;;17.95;74.41;100215.41;5018771;28;20207;-74
2023/08/30 08:57:54;;;;;;;1.93;1.57;;;;;;;17.98;74.43;100209.31;5019928;28;20202;-75
2023/08/30 09:00:21;;;;;;;1.90;1.70;;;;;;;18.04;76.21;100212.34;5019400;28;20650;-74
2023/08/30 09:02:47;;;;;;;1.87;1.60;;;;;;;18.10;76.31;100218.81;5019091;28;20681;-74
2023/08/30 09:05:14;;;;;;;3.93;1.70;;;;;;;18.19;75.07;100221.88;5020934;28;20231;-74
2023/08/30 09:07:43;;;;;;;2.30;1.60;;;;;;;18.31;75.01;100227.56;4994330;28;21833;-74
2023/08/30 09:10:11;;;;;;;3.40;1.50;;;;;;;18.39;75.06;100217.66;5018418;28;20472;-75
2023/08/30 09:12:37;;;;;;;1.67;1.50;;;;;;;18.52;74.14;100216.09;5019372;28;20214;-74
2023/08/30 09:15:04;;;;;;;4.10;1.40;;;;;;;18.67;73.07;100220.25;5000347;28;20223;-74
2023/08/30 09:17:37;;;;;;;1.87;1.37;;;;;;;18.75;73.55;100219.84;5017761;28;20210;-74
2023/08/30 09:20:11;;;;;;;3.10;1.37;;;;;;;18.87;74.39;100219.41;5016441;28;20203;-75
2023/08/30 09:22:39;;;;;;;1.70;1.60;;;;;;;18.99;72.23;100226.97;5017677;28;20208;-74
2023/08/30 09:25:09;;;;;;;1.90;1.57;;;;;;;19.15;72.48;100216.56;5015997;28;20227;-75
2023/08/30 09:27:35;;;;;;;1.20;1.10;;;;;;;19.27;78.07;100221.53;4990344;28;20226;-75
2023/08/30 09:30:03;;;;;;;3.77;1.00;;;;;;;19.39;72.63;100220.28;5015548;28;20226;-74
2023/08/30 09:32:30;;;;;;;3.13;1.70;;;;;;;19.45;70.17;100216.06;5014970;28;20199;-75
2023/08/30 09:34:57;;;;;;;2.20;1.80;;;;;;;19.48;68.75;100221.38;5016062;28;20315;-74
2023/08/30 09:37:26;;;;;;;1.63;1.33;;;;;;;19.57;69.95;100219.03;5015415;28;20489;-74
2023/08/30 09:39:52;;;;;;;1.70;1.27;;;;;;;19.65;69.61;100209.78;5014695;28;20199;-74
2023/08/30 09:42:20;;;;;;;2.07;0.97;;;;;;;19.76;68.65;100215.06;5015383;28;20217;-74
2023/08/30 09:44:47;;;;;;;1.50;1.20;;;;;;;19.82;66.88;100216.16;5015371;28;20808;-75
2023/08/30 09:47:14;;;;;;;2.00;1.20;;;;;;;19.90;69.31;100212.25;5013019;28;20234;-74
2023/08/30 09:49:44;;;;;;;1.93;1.07;;;;;;;19.89;67.91;100214.19;5014710;28;20322;-75
2023/08/30 09:52:11;;;;;;;1.80;1.20;;;;;;;19.90;67.68;100214.94;5014583;28;20226;-75
2023/08/30 09:54:41;;;;;;;1.40;1.00;;;;;;;19.89;67.57;100211.50;5014426;28;20234;-75
2023/08/30 09:57:08;;;;;;;1.00;0.90;;;;;;;19.91;64.97;100219.91;4996065;28;20737;-74
2023/08/30 09:59:37;;;;;;;0.70;0.67;;;;;;;19.94;65.08;100211.06;5015055;28;20578;-75
2023/08/30 10:02:05;;;;;;;1.33;0.90;;;;;;;19.96;64.99;100214.09;5014306;28;20242;-75
2023/08/30 10:04:32;;;;;;;1.33;1.20;;;;;;;20.00;62.81;100206.03;5014137;28;20224;-75
2023/08/30 10:07:00;;;;;;;1.47;1.37;;;;;;;20.00;64.61;100201.44;5012176;28;20286;-74
2023/08/30 10:09:26;;;;;;;4.43;0.90;;;;;;;20.02;63.71;100193.00;5013458;28;20593;-75
2023/08/30 10:11:54;;;;;;;1.50;0.80;;;;;;;20.08;64.57;100205.59;5014352;28;20669;-74
2023/08/30 10:14:21;;;;;;;1.63;1.10;;;;;;;20.11;63.47;100194.09;5012333;28;20228;-75
2023/08/30 10:16:49;;;;;;;1.30;0.90;;;;;;;20.15;63.50;100200.19;5012945;28;20201;-74
2023/08/30 10:19:18;;;;;;;1.37;1.00;;;;;;;20.20;64.26;100202.44;4987027;28;20215;-75
2023/08/30 10:21:45;;;;;;;1.47;0.90;;;;;;;20.26;63.88;100192.78;4986509;28;20809;-75
2023/08/30 10:24:14;;;;;;;2.60;1.20;;;;;;;20.34;64.61;100190.78;5014563;28;20219;-75
2023/08/30 10:26:43;;;;;;;2.47;1.43;;;;;;;20.42;64.47;100195.69;5011775;28;20464;-75
2023/08/30 10:29:11;;;;;;;1.37;1.13;;;;;;;20.48;61.92;100190.66;5012023;28;20214;-74
2023/08/30 10:31:41;;;;;;;1.27;1.00;;;;;;;20.56;62.56;100194.75;5010822;28;20199;-74
2023/08/30 10:34:16;;;;;;;1.97;1.00;;;;;;;20.54;60.19;100203.19;5011835;28;20231;-74
2023/08/30 10:36:42;;;;;;;1.07;0.90;;;;;;;20.62;60.93;100199.28;5010841;28;20194;-75
2023/08/30 10:39:12;;;;;;;1.30;1.20;;;;;;;20.67;65.81;100203.44;4985981;28;20319;-74
2023/08/30 10:41:39;;;;;;;1.10;1.00;;;;;;;20.65;59.85;100201.13;5012469;28;20214;-74
2023/08/30 10:44:06;;;;;;;1.17;1.00;;;;;;;20.63;61.26;100198.13;5010451;28;20703;-74
2023/08/30 10:46:33;;;;;;;1.53;1.17;;;;;;;20.69;64.87;100211.84;5011973;28;20203;-74
2023/08/30 10:49:10;;;;;;;1.57;1.17;;;;;;;20.68;63.67;100204.94;5011976;28;21179;-74
2023/08/30 10:51:40;;;;;;;1.30;1.20;;;;;;;20.71;64.13;100210.28;5011743;28;20195;-74
2023/08/30 10:54:13;;;;;;;1.63;1.30;;;;;;;20.79;64.95;100214.41;5013205;28;20733;-75
2023/08/30 10:56:48;;;;;;;1.10;1.00;;;;;;;20.83;62.39;100214.34;5011176;28;20203;-75
2023/08/30 10:59:18;;;;;;;1.67;1.00;;;;;;;20.86;63.12;100216.25;5010744;28;20207;-74
2023/08/30 11:01:46;;;;;;;1.48;0.90;;;;;;;20.94;61.72;100209.63;5010347;28;20232;-75
2023/08/30 11:04:15;;;;;;;1.05;0.90;;;;;;;20.97;59.89;100212.28;5010415;28;21139;-74
2023/08/30 11:06:45;;;;;;;2.83;1.83;;;;;;;21.03;60.21;100207.22;5010328;28;21405;-74
2023/08/30 11:09:14;;;;;;;1.15;1.05;;;;;;;21.07;60.46;100211.41;5011368;28;20720;-74
2023/08/30 11:11:40;;;;;;;1.17;1.08;;;;;;;21.11;59.30;100209.41;5009328;28;20213;-75
2023/08/30 11:14:08;;;;;;;2.03;0.95;;;;;;;21.14;64.05;100205.91;5011298;28;20218;-74
2023/08/30 11:16:35;;;;;;;1.33;0.90;;;;;;;21.17;57.89;100209.72;5009405;28;20660;-74
2023/08/30 11:19:02;;;;;;;1.73;1.00;;;;;;;21.24;60.31;100212.28;5009538;28;21128;-74
2023/08/30 11:21:28;;;;;;;1.35;1.10;;;;;;;21.30;59.72;100200.69;5010516;28;20226;-74
2023/08/30 11:23:56;;;;;;;1.98;1.13;;;;;;;21.33;59.77;100213.31;5009195;28;20223;-75
2023/08/30 11:26:22;;;;;;;2.58;1.30;;;;;;;21.34;61.73;100208.69;5008317;28;20207;-75